createdAt,value
2017-11-30T00:02:26.970Z,91.27
2017-11-30T00:07:28.727Z,80.87
2017-11-30T00:12:30.477Z,77.10
2017-11-30T00:17:32.987Z,89.03
2017-11-30T00:22:34.723Z,80.30
2017-11-30T00:27:36.557Z,78.17
2017-11-30T00:32:38.297Z,83.07
2017-11-30T00:37:40.850Z,72.47
2017-11-30T00:48:28.880Z,70.73
2017-11-30T00:53:30.642Z,72.77
2017-11-30T00:58:32.410Z,67.30
2017-11-30T01:03:34.217Z,72.73
2017-11-30T01:08:36.831Z,72.93
2017-11-30T01:13:38.552Z,70.90
2017-11-30T01:18:40.264Z,66.73
2017-11-30T01:23:42.061Z,71.30
2017-11-30T01:28:43.864Z,82.30
2017-11-30T01:33:45.647Z,73.80
2017-11-30T01:38:47.407Z,66.63
2017-11-30T01:43:49.104Z,76.57
2017-11-30T01:48:50.953Z,75.83
2017-11-30T01:53:52.708Z,75.47
2017-11-30T01:58:54.510Z,74.30
2017-11-30T02:03:56.255Z,69.37
2017-11-30T02:08:58.070Z,62.80
2017-11-30T02:13:59.776Z,81.30
2017-11-30T02:19:01.649Z,71.83
2017-11-30T02:24:03.408Z,81.40
2017-11-30T02:29:05.192Z,64.73
2017-11-30T02:34:07.118Z,59.70
2017-11-30T02:39:08.908Z,68.07
2017-11-30T02:44:10.754Z,74.23
2017-11-30T02:49:12.596Z,72.87
2017-11-30T02:54:35.436Z,67.37
2017-11-30T02:59:37.249Z,64.57
2017-11-30T03:04:39.038Z,65.63
2017-11-30T03:09:40.885Z,68.80
2017-11-30T03:14:43.404Z,61.37
2017-11-30T03:19:45.949Z,61.67
2017-11-30T03:24:47.708Z,64.53
2017-11-30T03:29:50.351Z,64.60
2017-11-30T03:34:52.151Z,69.20
2017-11-30T03:40:12.131Z,66.83
2017-11-30T03:45:13.875Z,65.50
2017-11-30T03:50:15.592Z,67.50
2017-11-30T03:55:17.305Z,68.70
2017-11-30T04:00:19.109Z,70.00
2017-11-30T04:05:21.036Z,79.37
2017-11-30T04:10:22.754Z,66.20
2017-11-30T04:15:24.484Z,72.57
2017-11-30T04:20:26.192Z,70.00
2017-11-30T04:25:27.873Z,64.90
2017-11-30T04:30:29.574Z,66.47
2017-11-30T04:35:32.092Z,63.10
2017-11-30T04:40:33.887Z,64.00
2017-11-30T04:45:35.621Z,66.90
2017-11-30T04:50:37.325Z,62.03
2017-11-30T04:55:39.076Z,73.07
2017-11-30T05:00:41.608Z,67.60
2017-11-30T05:05:43.907Z,64.83
2017-11-30T05:10:45.722Z,61.90
2017-11-30T05:15:47.484Z,67.60
2017-11-30T05:20:50.953Z,72.93
2017-11-30T05:25:52.706Z,74.50
2017-11-30T05:30:54.425Z,76.87
2017-11-30T05:35:56.192Z,77.83
2017-11-30T05:40:57.911Z,82.83
2017-11-30T05:45:59.950Z,82.17
2017-11-30T05:51:02.415Z,92.00
2017-11-30T05:56:04.112Z,81.23
2017-11-30T06:01:05.803Z,87.63
2017-11-30T06:06:07.500Z,101.50
2017-11-30T06:11:09.244Z,105.00
2017-11-30T06:16:10.984Z,93.90
2017-11-30T06:21:12.749Z,95.80
2017-11-30T06:26:15.245Z,93.53
2017-11-30T06:31:17.018Z,101.87
2017-11-30T06:36:18.743Z,98.67
2017-11-30T06:41:20.511Z,92.70
2017-11-30T06:46:22.307Z,94.07
2017-11-30T06:51:24.058Z,92.83
2017-11-30T06:56:27.885Z,99.53
2017-11-30T07:01:29.628Z,84.83
2017-11-30T07:06:31.392Z,80.10
2017-11-30T07:11:33.655Z,90.97
2017-11-30T07:16:35.413Z,91.13
2017-11-30T07:21:38.016Z,93.27
2017-11-30T07:26:39.750Z,87.33
2017-11-30T07:31:42.460Z,88.53
2017-11-30T07:36:44.203Z,98.03
2017-11-30T07:41:45.962Z,108.97
2017-11-30T07:46:48.589Z,103.57
2017-11-30T07:51:50.295Z,105.93
2017-11-30T07:56:52.023Z,98.73
2017-11-30T08:01:53.769Z,97.07
2017-11-30T08:06:56.234Z,110.63
2017-11-30T08:12:01.290Z,95.63
2017-11-30T08:17:03.274Z,92.50
2017-11-30T08:22:06.088Z,100.47
2017-11-30T08:27:10.525Z,90.97
2017-11-30T08:32:12.744Z,96.67
2017-11-30T08:37:14.621Z,83.83
2017-11-30T08:42:21.681Z,82.57
2017-11-30T08:47:23.583Z,74.13
2017-11-30T08:52:25.375Z,84.77
2017-11-30T08:57:27.254Z,80.80
2017-11-30T09:02:29.052Z,74.43
2017-11-30T09:07:31.411Z,64.10
2017-11-30T09:12:33.136Z,73.07
2017-11-30T09:17:35.097Z,66.00
2017-11-30T09:22:37.126Z,72.13
2017-11-30T09:27:38.826Z,65.73
2017-11-30T09:32:41.299Z,66.97
2017-11-30T09:37:47.719Z,63.17
2017-11-30T09:42:54.567Z,66.70
2017-11-30T09:47:59.352Z,62.73
2017-11-30T09:53:01.540Z,57.47
2017-11-30T09:58:04.206Z,56.37
2017-11-30T10:03:06.048Z,63.03
2017-11-30T10:08:08.422Z,55.40
2017-11-30T10:13:11.468Z,56.00
2017-11-30T10:18:13.272Z,58.93
2017-11-30T10:23:15.011Z,57.57
2017-11-30T10:28:16.853Z,50.27
2017-11-30T10:33:18.615Z,60.50
2017-11-30T10:38:20.406Z,51.67
2017-11-30T10:43:22.125Z,47.20
2017-11-30T10:48:23.933Z,43.50
2017-11-30T10:53:25.660Z,44.97
2017-11-30T10:58:28.327Z,46.30
2017-11-30T11:03:30.089Z,47.97
2017-11-30T11:08:31.798Z,57.67
2017-11-30T11:13:33.517Z,39.90
2017-11-30T11:18:35.248Z,42.90
2017-11-30T11:23:38.062Z,41.50
2017-11-30T11:28:40.540Z,40.97
2017-11-30T11:33:42.276Z,50.43
2017-11-30T11:38:44.816Z,44.00
2017-11-30T11:43:46.683Z,44.80
2017-11-30T11:48:48.479Z,43.00
2017-11-30T11:53:50.969Z,40.60
2017-11-30T11:58:52.688Z,38.37
2017-11-30T12:03:54.411Z,34.90
2017-11-30T12:08:57.130Z,35.97
2017-11-30T12:13:59.594Z,37.07
2017-11-30T12:19:01.345Z,32.53
2017-11-30T12:24:04.285Z,36.20
2017-11-30T12:29:06.049Z,44.13
2017-11-30T12:34:07.888Z,44.33
2017-11-30T12:39:09.614Z,37.83
2017-11-30T12:44:11.341Z,34.60
2017-11-30T12:49:13.298Z,36.20
2017-11-30T12:54:15.040Z,33.03
2017-11-30T12:59:16.981Z,31.10
2017-11-30T13:04:18.826Z,34.10
2017-11-30T13:09:20.587Z,32.47
2017-11-30T13:14:22.371Z,37.63
2017-11-30T13:19:24.837Z,30.70
2017-11-30T13:24:27.361Z,31.87
2017-11-30T13:29:29.120Z,35.30
2017-11-30T13:34:30.827Z,33.80
2017-11-30T13:39:33.549Z,40.37
2017-11-30T13:44:35.264Z,42.07
2017-11-30T13:49:38.028Z,37.00
2017-11-30T13:54:40.545Z,43.87
2017-11-30T13:59:42.294Z,42.27
2017-11-30T14:04:44.100Z,45.90
2017-11-30T14:09:45.895Z,34.37
2017-11-30T14:14:47.714Z,38.23
2017-11-30T14:19:49.454Z,36.27
2017-11-30T14:24:51.934Z,34.10
2017-11-30T14:29:53.630Z,38.80
2017-11-30T14:34:55.371Z,33.60
2017-11-30T14:39:57.906Z,39.63
2017-11-30T14:44:59.655Z,36.37
2017-11-30T14:50:01.434Z,39.77
2017-11-30T14:55:03.521Z,34.47
2017-11-30T15:00:05.330Z,31.93
2017-11-30T15:05:07.084Z,41.73
2017-11-30T15:10:09.639Z,41.73
2017-11-30T15:15:11.410Z,37.83
2017-11-30T15:20:14.003Z,35.47
2017-11-30T15:25:16.618Z,37.23
2017-11-30T15:30:18.490Z,39.70
2017-11-30T15:35:20.257Z,35.50
2017-11-30T15:40:23.023Z,36.40
2017-11-30T15:45:24.755Z,39.47
2017-11-30T15:50:26.605Z,36.00
2017-11-30T15:55:28.323Z,35.87
2017-11-30T16:00:30.026Z,49.17
2017-11-30T16:05:31.718Z,42.30
2017-11-30T16:10:33.545Z,33.07
2017-11-30T16:15:35.339Z,40.00
2017-11-30T16:20:37.115Z,43.93
2017-11-30T16:25:38.900Z,42.03
2017-11-30T16:30:40.622Z,39.10
2017-11-30T16:35:42.475Z,37.23
2017-11-30T16:40:45.026Z,44.03
2017-11-30T16:45:46.790Z,37.33
2017-11-30T16:50:49.251Z,34.37
2017-11-30T16:55:50.959Z,42.03
2017-11-30T17:00:52.711Z,34.97
2017-11-30T17:05:54.463Z,38.53
2017-11-30T17:10:56.315Z,38.07
2017-11-30T17:15:58.324Z,47.90
2017-11-30T17:21:00.075Z,60.80
2017-11-30T17:26:01.867Z,77.77
2017-11-30T17:31:03.698Z,41.63
2017-11-30T17:36:05.548Z,40.73
2017-11-30T17:41:07.331Z,40.67
2017-11-30T17:46:09.042Z,35.03
2017-11-30T17:51:10.803Z,41.10
2017-11-30T17:56:13.290Z,42.60
2017-11-30T18:01:15.066Z,49.13
2017-11-30T18:06:16.805Z,56.97
2017-11-30T18:11:18.569Z,49.53
2017-11-30T18:16:20.282Z,101.20
2017-11-30T18:21:22.862Z,145.27
2017-11-30T18:26:24.595Z,47.17
2017-11-30T18:31:26.350Z,45.47
2017-11-30T18:36:28.041Z,49.03
2017-11-30T18:41:30.534Z,46.27
2017-11-30T18:46:32.279Z,53.07
2017-11-30T18:51:34.019Z,43.20
2017-11-30T18:56:36.637Z,43.50
2017-11-30T19:01:38.410Z,43.93
2017-11-30T19:06:40.163Z,35.50
2017-11-30T19:11:41.860Z,44.40
2017-11-30T19:16:44.365Z,46.20
2017-11-30T19:21:46.116Z,50.97
2017-11-30T19:26:47.859Z,49.00
2017-11-30T19:31:50.449Z,51.40
2017-11-30T19:36:52.163Z,49.23
2017-11-30T19:41:53.857Z,49.90
2017-11-30T19:46:55.591Z,44.83
2017-11-30T19:51:57.314Z,57.73
2017-11-30T19:56:59.020Z,43.00
2017-11-30T20:02:00.798Z,45.73
2017-11-30T20:07:02.575Z,37.30
2017-11-30T20:12:04.452Z,40.67
2017-11-30T20:17:06.233Z,42.50
2017-11-30T20:22:07.934Z,47.13
2017-11-30T20:27:09.855Z,44.50
2017-11-30T20:32:12.436Z,40.00
2017-11-30T20:37:14.142Z,47.20
2017-11-30T20:42:15.964Z,40.53
2017-11-30T20:47:17.737Z,40.40
2017-11-30T20:52:19.517Z,35.50
2017-11-30T20:57:21.266Z,38.90
2017-11-30T21:02:23.431Z,47.70
2017-11-30T21:07:25.390Z,37.00
2017-11-30T21:12:27.827Z,37.30
2017-11-30T21:17:29.616Z,39.00
2017-11-30T21:22:31.795Z,36.30
2017-11-30T21:27:33.608Z,45.53
2017-11-30T21:32:35.785Z,38.97
2017-11-30T21:37:38.651Z,37.07
2017-11-30T21:42:40.546Z,37.57
2017-11-30T21:47:42.282Z,36.90
2017-11-30T21:52:45.711Z,30.17
2017-11-30T21:57:47.550Z,28.93
2017-11-30T22:02:49.299Z,37.63
2017-11-30T22:07:51.070Z,35.17
2017-11-30T22:12:55.059Z,48.03
2017-11-30T22:17:57.622Z,44.43
2017-11-30T22:22:59.334Z,36.40
2017-11-30T22:28:02.284Z,38.70
2017-11-30T22:33:04.942Z,35.83
2017-11-30T22:38:07.403Z,40.20
2017-11-30T22:43:09.152Z,39.03
2017-11-30T22:48:11.925Z,36.07
2017-11-30T22:53:13.610Z,40.73
2017-11-30T22:58:15.368Z,34.93
2017-11-30T23:03:17.084Z,35.47
2017-11-30T23:08:19.528Z,44.57
2017-11-30T23:13:21.225Z,41.13
2017-11-30T23:18:23.017Z,39.80
2017-11-30T23:23:25.211Z,42.30
2017-11-30T23:28:28.427Z,36.57
2017-11-30T23:33:31.311Z,40.23
2017-11-30T23:38:33.758Z,35.37
2017-11-30T23:43:35.896Z,37.50
2017-11-30T23:48:38.115Z,43.83
2017-11-30T23:53:41.086Z,38.80
2017-11-30T23:58:42.770Z,37.30
